AirNav   Pilot Hours Calculator
 
 924 users online  

0TA4 Erco Field Airport
Kaufman, Texas, USA

GOING TO KAUFMAN?


FAA INFORMATION EFFECTIVE 10 OCTOBER 2019

Location

FAA Identifier: 0TA4
Lat/Long: 32-29-52.4970N 096-16-13.9240W
32-29.874950N 096-16.232067W
32.4979158,-96.2705344
(estimated)
Elevation: 395 ft. / 120 m (estimated)
Variation: 06E (1990)
From city: 6 miles S of KAUFMAN, TX
Time zone: UTC -5 (UTC -6 during Standard Time)
Zip code: 75142

Airport Operations

Airport use: Private use. Permission required prior to landing
Activation date: 12/1991
Control tower: no
ARTCC: FORT WORTH CENTER
FSS: FORT WORTH FLIGHT SERVICE STATION
Attendance: IREG
Segmented circle: no

Airport Communications

WX ASOS at TRL (13 nm N): 119.275 (972-551-1334)
WX AWOS-3 at HQZ (20 nm NW): 118.175 (972-222-7631)

Nearby radio navigation aids

VOR radial/distance  VOR name  Freq  Var
CQYr346/18.9CEDAR CREEK VORTAC114.8006E
CVEr120/39.7COWBOY VOR/DME116.2006E

 
NDB name  Hdg/Dist  Freq  Var  ID
TRAVIS178/15.826006EAVZ .- ...- --..
MESQUITE142/22.824803EPQF .--. --.- ..-.
POWELL011/27.234406ECGQ -.-. --. --.-
CORSICANA007/28.939606ECRS -.-. .-. ...
ATHENS306/30.226906EAHX .- .... -..-
CROSSROADS321/30.521508ECSZ -.-. ... --..
CADDO MILLS176/32.631606EMII -- .. ..
PYRAMID348/38.341806EPYF .--. -.-- ..-.

Airport Services

Runway Information

Runway 15/33

Dimensions: 1742 x 50 ft. / 531 x 15 m
Surface: turf
RUNWAY 15  RUNWAY 33
Traffic pattern: rightleft
Displaced threshold: 100 ft.200 ft.
Obstructions: 5 ft. fence, 100 ft. from runway35 ft. pline, marked, 730 ft. from runway

Airport Ownership and Management from official FAA records

Ownership: Privately-owned
Owner: WILLIAM R. BAYNE
12087 FM 2860
KAUFMAN, TX 75142-7801
Phone 214-932-5063
Manager: WILLIAM R. BAYNE
12087 FM 2860
KAUFMAN, TX 75142-7801
Phone 214-932-5063

Airport Operational Statistics

Aircraft based on the field: 1
Single engine airplanes: 1
    

Additional Remarks

STRIP MAY NOT BE MOWED, CLEAR OF LIVESTOCK OR EQUIPMENT.
FOR CD CTC FORT WORTH ARTCC AT 817-858-7584.

Instrument Procedures

There are no published instrument procedures at 0TA4.

Some nearby airports with instrument procedures:

KTRL - Terrell Municipal Airport (13 nm N)
KHQZ - Mesquite Metro Airport (20 nm NW)
F41 - Ennis Municipal Airport (22 nm SW)
KLNC - Lancaster Regional Airport (23 nm W)
F46 - Ralph M Hall/Rockwall Municipal Airport (27 nm N)
 
Loc | Ops | Rwys | IFR | FBO | Links
Com | Nav | Svcs | Stats | Notes
Area around 0TA4 (Erco Field Airport)
 
Road maps at: MapQuest Bing Google
 
Aerial photo
No photo
 
Sectional chart

 
Airport distance calculator
Flying to Erco Field Airport? Find the distance to fly.

From to 0TA4

Sunrise and sunset
Times for 16-Oct-2019
 Local
(UTC-5)
 Zulu
(UTC)
Morning civil twilight07:0612:06
Sunrise07:3112:31
Sunset18:5123:51
Evening civil twilight19:1500:15

Current date and time
Zulu (UTC)  17-Oct-2019 01:34:16
Local (UTC-5)  16-Oct-2019 20:34:16
 
METAR
KTRL 
13nm N 
170053Z AUTO 34004KT 10SM CLR 17/04 A3011 RMK AO2 SLP195 T01670044
KHQZ 
20nm NW 
170050Z 31006KT 10SM CLR 16/05 A3012
KLNC 
23nm W 
170115Z AUTO 36005KT 10SM CLR 16/05 A3011 RMK AO2 T01590053
TAF
KDAL 
36nm NW 
162050Z 1621/1718 01011KT P6SM BKN300 FM170200 03004KT P6SM BKN250 FM171300 13003KT P6SM FEW250
KGKY 
43nm W 
162050Z 1621/1718 01011KT P6SM BKN300 FM170200 03004KT P6SM BKN250 FM171300 13003KT P6SM FEW250
KDFW 
45nm NW 
162050Z 1621/1724 01011KT P6SM BKN300 FM170200 03004KT P6SM BKN250 FM171300 13003KT P6SM FEW250
KTYR 
45nm E 
162103Z 1621/1718 36012KT P6SM SKC FM170000 VRB03KT P6SM SKC FM171500 12005KT P6SM SKC
NOTAMs
Click for the latest NOTAMs
NOTAMs are issued by the DoD/FAA and will open in a separate window not controlled by AirNav.

 

 
 

Would you like to see your business listed on this page?

 If your business provides an interesting product or service to pilots, flight crews, aircraft, or users of the Erco Field Airport, you should consider listing it here.  To start the listing process, click on the button below
 
Add a business
 

Other Pages about Erco Field Airport

Update a link
 
Copyright © AirNav, LLC. All rights reserved. Privacy Policy  Contact